Time;durP1;ratioP1;P1;durP2;ratioP2;P2;SDS_P1;SDS_P2;PMS_P1;PMS_P2;Temp;Humidity;BMP_temperature;BMP_pressure;BME280_temperature;BME280_humidity;BME280_pressure;Samples;Min_cycle;Max_cycle;Signal;HPM_P1;HPM_P2
2021/12/09 00:00:01;;;;;;;15.65;8.13;;;2.40;99.90;;;;;;5050680;28;20056;-62
2021/12/09 00:02:30;;;;;;;17.20;8.00;;;2.40;99.90;;;;;;5050407;28;20051;-62
2021/12/09 00:04:57;;;;;;;14.27;7.35;;;2.30;99.90;;;;;;5050455;28;20041;-61
2021/12/09 00:07:24;;;;;;;16.10;8.43;;;2.30;99.90;;;;;;5050413;28;20037;-61
2021/12/09 00:09:50;;;;;;;16.70;7.50;;;2.20;99.90;;;;;;5050226;28;20415;-61
2021/12/09 00:12:16;;;;;;;14.43;8.02;;;2.10;99.90;;;;;;5050120;28;20068;-61
2021/12/09 00:14:42;;;;;;;13.27;7.95;;;2.10;99.90;;;;;;5050228;28;20037;-61
2021/12/09 00:17:10;;;;;;;16.75;8.00;;;2.00;99.90;;;;;;5050356;28;20121;-61
2021/12/09 00:19:37;;;;;;;15.68;8.05;;;1.90;99.90;;;;;;5032369;28;20051;-61
2021/12/09 00:22:05;;;;;;;19.70;8.35;;;1.90;99.90;;;;;;5032122;28;20057;-61
2021/12/09 00:24:31;;;;;;;21.20;8.70;;;1.80;99.90;;;;;;5049809;28;20107;-61
2021/12/09 00:26:57;;;;;;;16.98;8.35;;;1.80;99.90;;;;;;5049389;28;20041;-61
2021/12/09 00:29:22;;;;;;;16.33;8.70;;;1.70;99.90;;;;;;5049521;28;20048;-61
2021/12/09 00:31:48;;;;;;;17.98;9.90;;;1.70;99.90;;;;;;5056836;28;20037;-61
2021/12/09 00:34:15;;;;;;;18.52;8.48;;;1.70;99.90;;;;;;5069850;28;20306;-61
2021/12/09 00:36:54;;;;;;;15.82;8.35;;;1.60;99.90;;;;;;5069326;28;20044;-61
2021/12/09 00:39:20;;;;;;;14.38;8.15;;;1.60;99.90;;;;;;5070063;28;20068;-61
2021/12/09 00:41:45;;;;;;;18.27;9.07;;;1.60;99.90;;;;;;5069910;28;20068;-61
2021/12/09 00:44:11;;;;;;;18.10;8.10;;;1.60;99.90;;;;;;5069394;28;20036;-61
2021/12/09 00:46:38;;;;;;;17.42;8.73;;;1.60;99.90;;;;;;5069654;28;20379;-61
2021/12/09 00:49:03;;;;;;;13.93;8.32;;;1.60;99.90;;;;;;5069493;28;20471;-61
2021/12/09 00:51:29;;;;;;;19.65;9.50;;;1.60;99.90;;;;;;5069105;28;20103;-60
2021/12/09 00:53:55;;;;;;;16.88;8.60;;;1.50;99.90;;;;;;5069461;28;20051;-61
2021/12/09 00:56:21;;;;;;;17.48;8.82;;;1.50;99.90;;;;;;5069529;28;20043;-60
2021/12/09 00:58:47;;;;;;;18.65;9.07;;;1.50;99.90;;;;;;5069493;28;20041;-61
2021/12/09 01:01:13;;;;;;;18.77;8.80;;;1.50;99.90;;;;;;5069420;28;20430;-60
2021/12/09 01:03:40;;;;;;;23.70;9.55;;;1.50;99.90;;;;;;5069193;28;20044;-60
2021/12/09 01:06:06;;;;;;;21.85;9.05;;;1.50;99.90;;;;;;5069035;28;20035;-60
2021/12/09 01:08:32;;;;;;;19.38;8.65;;;1.50;99.90;;;;;;5069381;28;20047;-60
2021/12/09 01:10:57;;;;;;;20.30;9.23;;;1.50;99.90;;;;;;5069288;28;20040;-59
2021/12/09 01:13:23;;;;;;;13.68;8.60;;;1.40;99.90;;;;;;5069199;28;20044;-60
2021/12/09 01:15:49;;;;;;;19.83;9.30;;;1.40;99.90;;;;;;5069172;28;20048;-60
2021/12/09 01:18:14;;;;;;;14.75;8.25;;;1.40;99.90;;;;;;5069150;28;20102;-61
2021/12/09 01:20:40;;;;;;;24.58;8.93;;;1.40;99.90;;;;;;5084439;28;20040;-60
2021/12/09 01:23:07;;;;;;;16.08;8.85;;;1.40;99.90;;;;;;5051132;28;20402;-61
2021/12/09 01:25:36;;;;;;;23.70;9.20;;;1.30;99.90;;;;;;5068950;28;20159;-61
2021/12/09 01:28:05;;;;;;;17.40;9.10;;;1.40;99.90;;;;;;5069028;28;20045;-61
2021/12/09 01:30:31;;;;;;;18.13;9.50;;;1.30;99.90;;;;;;5051212;28;20125;-60
2021/12/09 01:32:57;;;;;;;17.42;8.98;;;1.30;99.90;;;;;;5034166;28;20045;-60
2021/12/09 01:35:28;;;;;;;18.27;9.73;;;1.30;99.90;;;;;;5049044;28;20098;-60
2021/12/09 01:37:59;;;;;;;19.48;9.52;;;1.20;99.90;;;;;;5031580;28;20072;-61
2021/12/09 01:40:26;;;;;;;18.98;9.85;;;1.30;99.90;;;;;;5031220;28;20314;-61
2021/12/09 01:42:52;;;;;;;19.80;10.38;;;1.30;99.90;;;;;;5048724;28;20082;-61
2021/12/09 01:45:18;;;;;;;16.30;9.60;;;1.30;99.90;;;;;;5048951;28;20127;-60
2021/12/09 01:47:44;;;;;;;21.63;10.13;;;1.20;99.90;;;;;;5048490;28;20037;-60
2021/12/09 01:50:10;;;;;;;19.35;10.35;;;1.20;99.90;;;;;;5048933;28;20033;-60
2021/12/09 01:52:36;;;;;;;23.83;10.55;;;1.30;99.90;;;;;;5048611;28;20062;-59
2021/12/09 01:55:04;;;;;;;21.63;10.18;;;1.30;99.90;;;;;;5048925;28;20037;-61
2021/12/09 01:57:30;;;;;;;20.88;10.35;;;1.20;99.90;;;;;;5048710;28;20040;-61
2021/12/09 01:59:55;;;;;;;22.88;10.70;;;1.20;99.90;;;;;;5048777;28;20029;-60
2021/12/09 02:02:21;;;;;;;20.52;10.25;;;1.20;99.90;;;;;;5048254;28;20033;-60
2021/12/09 02:04:46;;;;;;;25.63;10.35;;;1.10;99.90;;;;;;5048898;28;20122;-60
2021/12/09 02:07:12;;;;;;;26.38;11.43;;;1.10;99.90;;;;;;5031051;28;20044;-61
2021/12/09 02:09:38;;;;;;;27.10;11.68;;;1.20;99.90;;;;;;5048628;28;20525;-61
2021/12/09 02:12:05;;;;;;;24.90;11.93;;;1.20;99.90;;;;;;5049069;28;20037;-60
2021/12/09 02:14:31;;;;;;;24.48;12.10;;;1.20;99.90;;;;;;5031483;28;20061;-61
2021/12/09 02:16:57;;;;;;;22.80;11.73;;;1.30;99.90;;;;;;5049314;28;20140;-61
2021/12/09 02:19:22;;;;;;;21.40;11.30;;;1.30;99.90;;;;;;5049525;28;20037;-61
2021/12/09 02:21:48;;;;;;;27.65;11.82;;;1.30;99.90;;;;;;5049168;28;20045;-61
2021/12/09 02:24:16;;;;;;;26.20;12.48;;;1.30;99.90;;;;;;5049149;28;20037;-60
2021/12/09 02:26:45;;;;;;;20.90;11.77;;;1.30;99.90;;;;;;5068928;22;20052;-63
2021/12/09 02:29:12;;;;;;;22.15;11.65;;;1.30;99.90;;;;;;5089257;28;20035;-62
2021/12/09 02:31:39;;;;;;;26.08;11.80;;;1.20;99.90;;;;;;5089169;28;20040;-63
2021/12/09 02:34:06;;;;;;;23.48;11.90;;;1.20;99.90;;;;;;5089463;28;20064;-62
2021/12/09 02:36:37;;;;;;;25.08;11.27;;;1.20;99.90;;;;;;5086073;28;20043;-63
2021/12/09 02:39:05;;;;;;;22.67;12.05;;;1.20;99.90;;;;;;5069321;28;20578;-63
2021/12/09 02:41:30;;;;;;;24.73;12.05;;;1.10;99.90;;;;;;5069053;28;20559;-63
2021/12/09 02:44:01;;;;;;;26.35;12.85;;;1.10;99.90;;;;;;5068716;28;20037;-62
2021/12/09 02:46:27;;;;;;;21.07;11.73;;;1.10;99.90;;;;;;5069336;28;20071;-63
2021/12/09 02:48:54;;;;;;;26.02;12.15;;;1.00;99.90;;;;;;5069443;28;20282;-63
2021/12/09 02:51:19;;;;;;;22.15;12.52;;;1.00;99.90;;;;;;5069044;28;20064;-63
2021/12/09 02:53:45;;;;;;;22.20;12.43;;;0.90;99.90;;;;;;5070692;28;20443;-63
2021/12/09 02:56:12;;;;;;;21.77;12.18;;;0.90;99.90;;;;;;5054591;28;20052;-63
2021/12/09 02:58:38;;;;;;;26.10;12.63;;;0.90;99.90;;;;;;5072467;28;20170;-62
2021/12/09 03:01:28;;;;;;;21.65;12.10;;;0.90;99.90;;;;;;5072755;28;20064;-62
2021/12/09 03:03:59;;;;;;;22.70;12.65;;;0.90;99.90;;;;;;5072243;28;20132;-63
2021/12/09 03:06:30;;;;;;;;;;;1.00;99.90;;;;;;5054735;28;20076;-62
2021/12/09 03:08:56;;;;;;;20.37;12.30;;;1.00;99.90;;;;;;5072293;28;19940;-62
2021/12/09 03:11:22;;;;;;;28.52;12.75;;;1.00;99.90;;;;;;5072383;28;20299;-63
2021/12/09 03:13:50;;;;;;;27.02;12.98;;;1.00;99.90;;;;;;5072194;28;20056;-63
2021/12/09 03:16:19;;;;;;;27.35;13.65;;;0.90;99.90;;;;;;5072190;28;20037;-63
2021/12/09 03:18:51;;;;;;;23.80;13.40;;;0.90;99.90;;;;;;5072298;28;20040;-63
2021/12/09 03:21:18;;;;;;;27.63;12.57;;;0.90;99.90;;;;;;5072205;28;20036;-63
2021/12/09 03:23:44;;;;;;;23.20;12.80;;;0.90;99.90;;;;;;5071802;28;20110;-62
2021/12/09 03:26:10;;;;;;;26.83;12.50;;;0.90;99.90;;;;;;5072066;28;20494;-63
2021/12/09 03:28:36;;;;;;;31.67;13.48;;;0.90;99.90;;;;;;5071939;28;20693;-63
2021/12/09 03:31:02;;;;;;;25.13;12.25;;;0.90;99.90;;;;;;5072107;28;20032;-63
2021/12/09 03:33:27;;;;;;;26.70;13.07;;;0.80;99.90;;;;;;5071739;28;20520;-63
2021/12/09 03:35:57;;;;;;;27.70;13.63;;;0.80;99.90;;;;;;5071662;28;20036;-62
2021/12/09 03:38:23;;;;;;;26.63;12.95;;;0.80;99.90;;;;;;5054022;28;20047;-63
2021/12/09 03:40:49;;;;;;;27.77;13.55;;;0.70;99.90;;;;;;5053868;28;20056;-63
2021/12/09 03:43:15;;;;;;;22.38;12.93;;;0.80;99.90;;;;;;5071699;28;20490;-62
2021/12/09 03:45:40;;;;;;;26.88;11.77;;;0.80;99.90;;;;;;5068585;28;20497;-62
2021/12/09 03:48:06;;;;;;;29.75;13.88;;;0.80;99.90;;;;;;5051748;28;20037;-62
2021/12/09 03:50:32;;;;;;;26.45;13.00;;;0.80;99.90;;;;;;5055224;28;20032;-63
2021/12/09 03:52:57;;;;;;;24.83;13.02;;;0.80;99.90;;;;;;5071522;28;20110;-63
2021/12/09 03:55:23;;;;;;;34.95;14.13;;;0.80;99.90;;;;;;5068583;28;20039;-63
2021/12/09 03:57:48;;;;;;;29.35;14.13;;;0.80;99.90;;;;;;5051472;28;20037;-63
2021/12/09 04:00:14;;;;;;;28.67;13.80;;;0.90;99.90;;;;;;5051493;28;20040;-65
2021/12/09 04:02:40;;;;;;;31.40;14.60;;;0.90;99.90;;;;;;5062506;28;20044;-65
2021/12/09 04:05:07;;;;;;;29.35;14.40;;;1.00;99.90;;;;;;5069912;28;20036;-65
2021/12/09 04:07:33;;;;;;;27.55;14.07;;;0.90;99.90;;;;;;5071291;28;20048;-65
2021/12/09 04:09:59;;;;;;;31.23;13.82;;;0.90;99.90;;;;;;5059346;28;20067;-64
2021/12/09 04:12:25;;;;;;;23.00;13.95;;;1.00;99.90;;;;;;5051164;28;20044;-64
2021/12/09 04:14:50;;;;;;;31.83;14.45;;;1.00;99.90;;;;;;5051253;28;20033;-65
2021/12/09 04:17:16;;;;;;;32.78;14.55;;;0.90;99.90;;;;;;5050925;28;20033;-65
2021/12/09 04:19:47;;;;;;;26.80;14.30;;;0.90;99.90;;;;;;5050766;28;20490;-65
2021/12/09 04:22:18;;;;;;;32.80;15.33;;;0.90;99.90;;;;;;5051125;28;20107;-65
2021/12/09 04:24:44;;;;;;;29.90;14.20;;;0.90;99.90;;;;;;5033359;28;20271;-64
2021/12/09 04:27:10;;;;;;;27.35;14.25;;;0.90;99.90;;;;;;5050730;28;20118;-64
2021/12/09 04:29:36;;;;;;;31.05;14.20;;;0.90;99.90;;;;;;5050780;28;20407;-65
2021/12/09 04:32:03;;;;;;;26.42;14.15;;;0.90;99.90;;;;;;5059607;28;20036;-64
2021/12/09 04:34:28;;;;;;;26.75;13.80;;;0.90;99.90;;;;;;5053144;28;20074;-64
2021/12/09 04:36:54;;;;;;;24.67;14.13;;;0.90;99.90;;;;;;5070512;28;20463;-65
2021/12/09 04:39:19;;;;;;;30.20;13.52;;;0.80;99.90;;;;;;5052543;28;20066;-65
2021/12/09 04:41:45;;;;;;;31.77;13.52;;;0.80;99.90;;;;;;5070589;28;20039;-65
2021/12/09 04:44:11;;;;;;;26.52;12.95;;;0.70;99.90;;;;;;5070505;28;20073;-65
2021/12/09 04:46:37;;;;;;;28.60;13.63;;;0.70;99.90;;;;;;5070528;28;20090;-65
2021/12/09 04:49:04;;;;;;;27.05;13.23;;;0.70;99.90;;;;;;5070159;28;20105;-64
2021/12/09 04:51:30;;;;;;;31.70;13.90;;;0.60;99.90;;;;;;5070113;28;20430;-65
2021/12/09 04:53:55;;;;;;;24.75;13.52;;;0.60;99.90;;;;;;5052308;28;20028;-65
2021/12/09 04:56:22;;;;;;;31.17;14.13;;;0.60;99.90;;;;;;5070486;28;20040;-65
2021/12/09 04:58:48;;;;;;;27.55;14.02;;;0.60;99.90;;;;;;5070312;28;20037;-65
2021/12/09 05:01:14;;;;;;;25.90;13.70;;;0.60;99.90;;;;;;5052273;28;20128;-65
2021/12/09 05:03:44;;;;;;;28.73;14.02;;;0.60;99.90;;;;;;5069885;28;20040;-65
2021/12/09 05:06:10;;;;;;;29.10;14.48;;;0.50;99.90;;;;;;5052226;28;20040;-65
2021/12/09 05:08:37;;;;;;;35.88;14.25;;;0.50;99.90;;;;;;5070191;28;20043;-65
2021/12/09 05:11:26;;;;;;;26.00;14.18;;;0.50;99.90;;;;;;5070044;28;20111;-65
2021/12/09 05:13:52;;;;;;;27.38;14.80;;;0.50;99.90;;;;;;5069656;28;20701;-65
2021/12/09 05:16:18;;;;;;;27.42;14.30;;;0.50;99.90;;;;;;5052108;28;20068;-65
2021/12/09 05:18:44;;;;;;;33.67;14.20;;;0.50;99.90;;;;;;5070146;28;20655;-65
2021/12/09 05:21:12;;;;;;;30.50;14.55;;;0.50;99.90;;;;;;5070026;28;20068;-65
2021/12/09 05:23:38;;;;;;;28.75;13.98;;;0.50;99.90;;;;;;5051644;28;20056;-64
2021/12/09 05:26:05;;;;;;;30.67;13.70;;;0.50;99.90;;;;;;5070078;28;20111;-65
2021/12/09 05:28:34;;;;;;;37.10;14.25;;;0.40;99.90;;;;;;5069562;28;20059;-65
2021/12/09 05:33:59;;;;;;;29.50;14.18;;;0.40;99.90;;;;;;5024496;28;20044;-63
2021/12/09 05:36:25;;;;;;;28.38;13.77;;;0.50;99.90;;;;;;5069835;28;20047;-63
2021/12/09 05:38:50;;;;;;;28.88;14.38;;;0.50;99.90;;;;;;5069629;28;20044;-62
2021/12/09 05:41:16;;;;;;;27.45;15.00;;;0.50;99.90;;;;;;5069883;28;20039;-62
2021/12/09 05:43:41;;;;;;;28.40;14.65;;;0.50;99.90;;;;;;5069638;28;20518;-62
2021/12/09 05:46:07;;;;;;;26.38;14.68;;;0.40;99.90;;;;;;5069737;28;20037;-63
2021/12/09 05:48:34;;;;;;;30.73;15.00;;;0.40;99.90;;;;;;5069608;28;20119;-63
2021/12/09 05:51:00;;;;;;;30.50;14.55;;;0.50;99.90;;;;;;5069473;28;20567;-63
2021/12/09 05:53:25;;;;;;;28.80;13.70;;;0.40;99.90;;;;;;5051241;28;20072;-63
2021/12/09 05:55:51;;;;;;;31.23;14.95;;;0.40;99.90;;;;;;5069762;28;20040;-63
2021/12/09 05:58:18;;;;;;;30.90;14.65;;;0.40;99.90;;;;;;5069615;28;20126;-62
2021/12/09 06:00:45;;;;;;;28.63;13.65;;;0.40;99.90;;;;;;5069806;28;20086;-62
2021/12/09 06:03:11;;;;;;;37.75;14.75;;;0.30;99.90;;;;;;5069402;28;20658;-63
2021/12/09 06:05:37;;;;;;;25.58;13.18;;;0.30;99.90;;;;;;5069502;28;20043;-63
2021/12/09 06:08:04;;;;;;;30.90;13.02;;;0.20;99.90;;;;;;5069126;28;20090;-63
2021/12/09 06:10:30;;;;;;;31.48;13.80;;;0.20;99.90;;;;;;5068403;28;20110;-62
2021/12/09 06:12:56;;;;;;;30.05;14.73;;;0.10;99.90;;;;;;5048609;28;20064;-62
2021/12/09 06:15:21;;;;;;;31.00;15.38;;;0.10;99.90;;;;;;5067150;28;20067;-63
2021/12/09 06:17:47;;;;;;;34.75;15.82;;;0.10;99.90;;;;;;5066612;28;20037;-63
2021/12/09 06:20:12;;;;;;;36.83;17.52;;;0.20;99.90;;;;;;5066593;28;20036;-63
2021/12/09 06:22:38;;;;;;;37.35;16.83;;;0.40;99.90;;;;;;5066322;28;20048;-62
2021/12/09 06:25:05;;;;;;;38.65;16.63;;;0.40;99.90;;;;;;5066713;28;20062;-63
2021/12/09 06:27:30;;;;;;;39.85;16.67;;;0.50;99.90;;;;;;5066312;28;20119;-62
2021/12/09 06:29:56;;;;;;;36.08;15.90;;;0.50;99.90;;;;;;5052503;28;20119;-63
2021/12/09 06:32:22;;;;;;;34.40;15.98;;;0.50;99.90;;;;;;5069954;28;20070;-63
2021/12/09 06:34:47;;;;;;;29.13;14.30;;;0.50;99.90;;;;;;5070125;28;20457;-62
2021/12/09 06:37:13;;;;;;;37.20;15.40;;;0.50;99.90;;;;;;5051891;28;20080;-62
2021/12/09 06:39:39;;;;;;;35.35;14.80;;;0.50;99.90;;;;;;5070229;28;20032;-63
2021/12/09 06:42:05;;;;;;;39.45;15.65;;;0.40;99.90;;;;;;5069942;28;20056;-62
2021/12/09 06:44:31;;;;;;;29.30;14.27;;;0.40;99.90;;;;;;5069698;28;20040;-62
2021/12/09 06:46:57;;;;;;;27.95;14.82;;;0.40;99.90;;;;;;5069904;28;20571;-61
2021/12/09 06:49:23;;;;;;;31.77;16.02;;;0.40;99.90;;;;;;5069107;28;20552;-63
2021/12/09 06:51:49;;;;;;;29.42;14.50;;;0.50;99.90;;;;;;5069591;28;20072;-62
2021/12/09 06:54:15;;;;;;;29.15;15.07;;;0.50;99.90;;;;;;5069861;28;20094;-62
2021/12/09 06:56:40;;;;;;;28.63;15.05;;;0.40;99.90;;;;;;5069845;28;20041;-62
2021/12/09 06:59:06;;;;;;;29.70;14.25;;;0.40;99.90;;;;;;5069736;28;20127;-60
2021/12/09 07:01:32;;;;;;;30.50;15.23;;;0.40;99.90;;;;;;5069780;28;20464;-61
2021/12/09 07:03:57;;;;;;;32.70;15.63;;;0.40;99.90;;;;;;5069448;28;20127;-61
2021/12/09 07:06:23;;;;;;;31.85;15.57;;;0.40;99.90;;;;;;5051130;28;20044;-62
2021/12/09 07:08:50;;;;;;;31.08;15.38;;;0.40;99.90;;;;;;5051438;28;20097;-62
2021/12/09 07:11:19;;;;;;;27.67;14.40;;;0.30;99.90;;;;;;5072242;28;20056;-61
2021/12/09 07:13:47;;;;;;;29.33;14.52;;;0.30;99.90;;;;;;5072122;28;20051;-61
2021/12/09 07:16:12;;;;;;;32.05;14.73;;;0.30;99.90;;;;;;5071055;28;20037;-61
2021/12/09 07:18:38;;;;;;;31.50;14.63;;;0.30;99.90;;;;;;5072097;28;20033;-61
2021/12/09 07:21:06;;;;;;;27.85;14.82;;;0.30;99.90;;;;;;5053957;28;20098;-61
2021/12/09 07:23:32;;;;;;;34.33;14.10;;;0.30;99.90;;;;;;5071988;28;20047;-61
2021/12/09 07:25:58;;;;;;;33.75;15.05;;;0.40;99.90;;;;;;5071973;28;20487;-61
2021/12/09 07:28:24;;;;;;;31.63;14.93;;;0.40;99.90;;;;;;5071919;28;20055;-61
2021/12/09 07:30:49;;;;;;;31.67;15.10;;;0.40;99.90;;;;;;5071916;28;20099;-61
2021/12/09 07:33:15;;;;;;;37.33;15.30;;;0.50;99.90;;;;;;5071637;28;20077;-61
2021/12/09 07:35:43;;;;;;;33.65;14.57;;;0.50;99.90;;;;;;5071598;28;20394;-61
2021/12/09 07:38:09;;;;;;;62.40;18.80;;;0.50;99.90;;;;;;5072097;28;20037;-61
2021/12/09 07:40:36;;;;;;;36.50;14.65;;;0.50;99.90;;;;;;5071565;28;20121;-61
2021/12/09 07:43:03;;;;;;;31.95;14.77;;;0.60;99.90;;;;;;5071564;28;20047;-60
2021/12/09 07:45:29;;;;;;;35.13;14.60;;;0.70;99.90;;;;;;5071738;28;20043;-61
2021/12/09 07:47:55;;;;;;;34.63;14.10;;;0.70;99.90;;;;;;5071527;28;20040;-61
2021/12/09 07:50:23;;;;;;;31.02;13.70;;;0.70;99.90;;;;;;5071759;28;20040;-61
2021/12/09 07:52:51;;;;;;;30.15;14.38;;;0.70;99.90;;;;;;5071482;28;20051;-61
2021/12/09 07:55:19;;;;;;;35.17;14.48;;;0.70;99.90;;;;;;5071635;28;20478;-61
2021/12/09 07:57:45;;;;;;;34.78;15.25;;;0.70;99.90;;;;;;5071456;28;20040;-61
2021/12/09 08:00:14;;;;;;;30.83;13.13;;;0.70;99.90;;;;;;5053637;28;20516;-61
2021/12/09 08:02:44;;;;;;;26.38;14.10;;;0.70;99.90;;;;;;5070999;28;20047;-61
2021/12/09 08:05:10;;;;;;;41.33;13.82;;;0.70;99.90;;;;;;5071364;28;20045;-61
2021/12/09 08:07:37;;;;;;;27.13;13.18;;;0.70;99.90;;;;;;5071235;28;20040;-60
2021/12/09 08:10:04;;;;;;;34.10;14.02;;;0.70;99.90;;;;;;5053537;28;20040;-61
2021/12/09 08:12:30;;;;;;;31.42;13.48;;;0.70;99.90;;;;;;5070875;28;20091;-61
2021/12/09 08:14:57;;;;;;;28.67;13.05;;;0.70;99.90;;;;;;5071077;28;20539;-61
2021/12/09 08:17:44;;;;;;;28.10;13.73;;;0.80;99.90;;;;;;5070724;28;20539;-61
2021/12/09 08:20:15;;;;;;;28.48;12.85;;;0.80;99.90;;;;;;5070716;28;20485;-61
2021/12/09 08:22:42;;;;;;;33.10;13.45;;;0.80;99.90;;;;;;5070932;28;20055;-61
2021/12/09 08:25:10;;;;;;;27.85;13.65;;;0.80;99.90;;;;;;5070786;28;20036;-60
2021/12/09 08:27:36;;;;;;;29.02;13.07;;;0.90;99.90;;;;;;5070211;28;20055;-61
2021/12/09 08:30:06;;;;;;;25.42;12.68;;;0.90;99.90;;;;;;5070198;28;20563;-61
2021/12/09 08:32:33;;;;;;;25.98;12.40;;;0.90;99.90;;;;;;5069833;28;20506;-61
2021/12/09 08:34:59;;;;;;;27.45;12.77;;;0.90;99.90;;;;;;5068913;28;20043;-61
2021/12/09 08:37:25;;;;;;;36.42;11.93;;;1.00;99.90;;;;;;5070520;28;20117;-61
2021/12/09 08:39:51;;;;;;;33.10;13.27;;;1.00;99.90;;;;;;5070588;28;20539;-61
2021/12/09 08:42:18;;;;;;;25.20;11.50;;;1.10;99.90;;;;;;5070044;28;20045;-60
2021/12/09 08:44:43;;;;;;;31.45;12.98;;;1.20;99.90;;;;;;5052644;28;20048;-61
2021/12/09 08:47:09;;;;;;;24.00;11.38;;;1.20;99.90;;;;;;5070643;28;20055;-61
2021/12/09 08:49:35;;;;;;;30.23;13.40;;;1.20;99.90;;;;;;5052827;28;20049;-61
2021/12/09 08:52:01;;;;;;;26.38;12.93;;;1.30;99.90;;;;;;5069461;28;20039;-60
2021/12/09 08:54:27;;;;;;;27.13;12.63;;;1.30;99.90;;;;;;5070291;28;20037;-61
2021/12/09 08:56:53;;;;;;;29.15;12.55;;;1.30;99.90;;;;;;5070073;28;20036;-61
2021/12/09 08:59:19;;;;;;;27.58;13.07;;;1.30;99.90;;;;;;5070607;28;20514;-61
2021/12/09 09:01:46;;;;;;;31.30;13.23;;;1.30;99.90;;;;;;5070292;28;20123;-61
2021/12/09 09:04:11;;;;;;;24.55;12.88;;;1.40;99.90;;;;;;5069796;28;20453;-61
2021/12/09 09:06:37;;;;;;;30.67;13.50;;;1.40;99.90;;;;;;5070091;28;20045;-61
2021/12/09 09:09:04;;;;;;;26.55;12.82;;;1.40;99.90;;;;;;5070091;28;20401;-60
2021/12/09 09:11:30;;;;;;;28.67;12.32;;;1.50;99.90;;;;;;5051759;28;20093;-61
2021/12/09 09:13:57;;;;;;;29.88;12.35;;;1.50;99.90;;;;;;5070023;28;20040;-61
2021/12/09 09:16:23;;;;;;;26.67;12.57;;;1.60;99.90;;;;;;5069990;28;20051;-60
2021/12/09 09:18:53;;;;;;;31.85;13.00;;;1.50;99.90;;;;;;5069988;28;20040;-61
2021/12/09 09:21:19;;;;;;;26.27;12.98;;;1.60;99.90;;;;;;5070120;28;20051;-61
2021/12/09 09:23:45;;;;;;;26.65;12.02;;;1.60;99.90;;;;;;5069626;28;20044;-61
2021/12/09 09:26:10;;;;;;;24.85;12.15;;;1.60;99.90;;;;;;5069675;28;20052;-61
2021/12/09 09:28:36;;;;;;;28.50;12.98;;;1.70;99.90;;;;;;5069733;28;20482;-61
2021/12/09 09:31:04;;;;;;;26.33;12.63;;;1.70;99.90;;;;;;5069950;28;20052;-61
2021/12/09 09:33:31;;;;;;;24.50;11.80;;;1.70;99.90;;;;;;5069727;28;20048;-61
2021/12/09 09:35:57;;;;;;;24.90;12.60;;;1.80;99.90;;;;;;5069746;28;20506;-61
2021/12/09 09:38:23;;;;;;;26.35;11.27;;;1.80;99.90;;;;;;5051504;28;20068;-61
2021/12/09 09:41:09;;;;;;;23.27;11.00;;;1.90;99.90;;;;;;5066049;28;20121;-61
2021/12/09 09:46:11;;;;;;;19.38;10.88;;;1.90;99.90;;;;;;5069507;28;20543;-62
2021/12/09 09:48:37;;;;;;;24.13;12.15;;;2.00;99.90;;;;;;5069474;28;20060;-62
2021/12/09 09:51:05;;;;;;;21.60;11.30;;;2.00;99.90;;;;;;5069179;28;20112;-62
2021/12/09 09:53:31;;;;;;;25.92;11.68;;;2.10;99.90;;;;;;5069534;28;20426;-62
2021/12/09 09:55:57;;;;;;;24.10;11.35;;;2.20;99.90;;;;;;5069708;28;20033;-61
2021/12/09 09:58:25;;;;;;;22.55;12.00;;;2.30;99.90;;;;;;5069385;28;20039;-62
2021/12/09 10:00:51;;;;;;;18.90;10.68;;;2.30;99.90;;;;;;5069378;28;20043;-61
2021/12/09 10:03:17;;;;;;;27.88;11.43;;;2.40;99.90;;;;;;5072327;28;20727;-61
2021/12/09 10:05:52;;;;;;;22.42;10.38;;;2.40;99.90;;;;;;5073297;28;20058;-61
2021/12/09 10:08:17;;;;;;;22.58;10.27;;;2.40;99.90;;;;;;5073402;28;20095;-62
2021/12/09 10:10:46;;;;;;;21.92;11.15;;;2.50;99.90;;;;;;5073242;28;20068;-62
2021/12/09 10:13:13;;;;;;;26.63;11.77;;;2.50;99.90;;;;;;5073245;28;20040;-61
2021/12/09 10:15:51;;;;;;;22.10;11.13;;;2.60;99.90;;;;;;5073590;28;20036;-61
2021/12/09 10:18:44;;;;;;;22.67;11.10;;;2.60;99.90;;;;;;5073075;28;20037;-61
2021/12/09 10:21:18;;;;;;;21.25;11.20;;;2.70;99.90;;;;;;5073257;28;20086;-62
2021/12/09 10:23:46;;;;;;;22.63;10.98;;;2.70;99.90;;;;;;5073116;28;20076;-62
2021/12/09 10:26:19;;;;;;;22.33;11.50;;;2.80;99.90;;;;;;5073203;28;20113;-61
2021/12/09 10:28:53;;;;;;;20.65;10.45;;;2.80;99.90;;;;;;5072992;28;20036;-62
2021/12/09 10:31:26;;;;;;;22.38;10.80;;;2.90;99.90;;;;;;5072795;28;20052;-62
2021/12/09 10:34:14;;;;;;;21.38;10.38;;;3.00;99.90;;;;;;5072838;28;20094;-62
2021/12/09 10:36:51;;;;;;;19.13;10.95;;;3.10;99.90;;;;;;5072889;28;20032;-62
2021/12/09 10:39:18;;;;;;;21.02;10.70;;;3.20;99.90;;;;;;5072787;28;20628;-62
2021/12/09 10:41:44;;;;;;;20.52;10.55;;;3.20;99.90;;;;;;5072696;28;20076;-61
2021/12/09 10:44:11;;;;;;;22.25;10.25;;;3.30;99.90;;;;;;5054684;28;20040;-61
2021/12/09 10:47:06;;;;;;;22.73;10.98;;;3.40;99.90;;;;;;5072761;28;20032;-61
2021/12/09 10:49:39;;;;;;;21.63;11.52;;;3.40;99.90;;;;;;5072026;28;20106;-61
2021/12/09 10:52:26;;;;;;;23.13;10.43;;;3.50;99.90;;;;;;5071137;28;20036;-61
2021/12/09 10:54:52;;;;;;;21.13;10.45;;;3.60;99.90;;;;;;5072245;28;20060;-62
2021/12/09 10:57:32;;;;;;;22.45;11.55;;;3.70;99.90;;;;;;5054071;28;20068;-61
2021/12/09 11:00:13;;;;;;;20.55;10.30;;;3.80;99.90;;;;;;5071915;28;20553;-61
2021/12/09 11:02:55;;;;;;;;;;;3.80;99.90;;;;;;5072353;28;20040;-62
2021/12/09 11:05:20;;;;;;;20.55;8.77;;;3.90;99.90;;;;;;5072514;28;19923;-61
2021/12/09 11:07:46;;;;;;;18.27;10.43;;;3.90;99.90;;;;;;5072514;28;20036;-61
2021/12/09 11:10:17;;;;;;;20.23;11.07;;;3.90;99.90;;;;;;5072090;28;20036;-62
2021/12/09 11:12:58;;;;;;;21.00;10.90;;;3.90;99.90;;;;;;5072103;28;20044;-61
2021/12/09 11:16:05;;;;;;;24.98;10.27;;;4.00;99.90;;;;;;5071569;28;20499;-61
2021/12/09 11:18:41;;;;;;;18.70;10.82;;;4.00;99.90;;;;;;5054159;28;20052;-62
2021/12/09 11:21:10;;;;;;;20.02;10.13;;;4.10;99.90;;;;;;5072351;28;20032;-62
2021/12/09 11:23:43;;;;;;;20.08;10.57;;;4.10;99.90;;;;;;5072007;28;20044;-61
2021/12/09 11:26:31;;;;;;;19.40;10.52;;;4.20;99.90;;;;;;5072259;28;20044;-62
2021/12/09 11:29:00;;;;;;;27.35;11.57;;;4.20;99.90;;;;;;5071952;28;20039;-61
2021/12/09 11:31:31;;;;;;;22.17;10.93;;;4.20;99.90;;;;;;5072010;28;20076;-62
2021/12/09 11:34:03;;;;;;;19.73;11.20;;;4.20;99.90;;;;;;5071832;28;20043;-61
2021/12/09 11:36:39;;;;;;;20.63;12.50;;;4.10;99.90;;;;;;5072041;28;20063;-62
2021/12/09 11:39:11;;;;;;;18.27;10.52;;;4.10;99.90;;;;;;5071977;28;20119;-61
2021/12/09 11:41:39;;;;;;;24.98;11.93;;;4.10;99.90;;;;;;5071661;28;20047;-61
2021/12/09 11:44:08;;;;;;;25.42;12.40;;;4.00;99.90;;;;;;5071646;28;20036;-61
2021/12/09 11:46:38;;;;;;;26.77;12.52;;;4.00;99.90;;;;;;5071834;28;20097;-62
2021/12/09 11:49:04;;;;;;;22.23;12.18;;;4.00;99.90;;;;;;5072011;28;20115;-61
2021/12/09 11:51:30;;;;;;;25.50;14.02;;;4.00;99.90;;;;;;5071530;28;20040;-62
2021/12/09 11:53:59;;;;;;;22.05;12.48;;;4.00;99.90;;;;;;5071227;28;20097;-62
2021/12/09 11:56:35;;;;;;;25.35;15.10;;;4.00;99.90;;;;;;5071567;28;20037;-62
2021/12/09 12:07:30;;;;;;;29.33;13.43;;;3.90;99.90;;;;;;5049906;28;20049;-62
2021/12/09 12:12:56;;;;;;;22.42;12.93;;;3.90;99.90;;;;;;5050845;28;20037;-62
2021/12/09 12:18:31;;;;;;;24.27;12.88;;;3.90;99.90;;;;;;5051092;28;20049;-62
2021/12/09 12:21:38;;;;;;;21.88;11.68;;;3.90;99.90;;;;;;5033260;28;20037;-62
2021/12/09 12:27:24;;;;;;;21.98;12.48;;;4.00;99.90;;;;;;5049650;28;20041;-62
2021/12/09 12:38:31;;;;;;;29.05;14.45;;;4.00;99.90;;;;;;5070056;28;20040;-62
2021/12/09 12:41:10;;;;;;;36.50;15.23;;;4.00;99.90;;;;;;5052690;28;20045;-62
2021/12/09 12:43:55;;;;;;;26.80;13.18;;;4.00;99.90;;;;;;5070509;28;20036;-62
2021/12/09 12:46:54;;;;;;;28.85;12.88;;;4.00;99.90;;;;;;5070443;28;20249;-62
2021/12/09 12:49:35;;;;;;;29.95;14.10;;;4.00;99.90;;;;;;5087430;28;20373;-63
2021/12/09 12:52:14;;;;;;;29.15;14.38;;;4.10;99.90;;;;;;5086493;28;20036;-62
2021/12/09 12:57:44;;;;;;;30.67;13.27;;;4.10;99.90;;;;;;5087229;28;20040;-62
2021/12/09 13:00:29;;;;;;;28.90;15.00;;;4.20;99.90;;;;;;5087414;28;20055;-63
2021/12/09 13:03:11;;;;;;;33.95;14.48;;;4.20;99.90;;;;;;5087198;28;20052;-62
2021/12/09 13:11:45;;;;;;;26.92;13.23;;;4.30;99.90;;;;;;5086552;28;20075;-62
2021/12/09 13:14:20;;;;;;;30.45;14.50;;;4.30;99.90;;;;;;5086744;28;20479;-63
2021/12/09 13:17:07;;;;;;;35.03;15.20;;;4.40;99.90;;;;;;5086933;28;20086;-62
2021/12/09 13:19:53;;;;;;;28.58;14.05;;;4.40;99.90;;;;;;5085817;28;20503;-62
2021/12/09 13:22:33;;;;;;;36.88;14.85;;;4.50;99.90;;;;;;5086970;28;20665;-62
2021/12/09 13:25:17;;;;;;;29.70;14.30;;;4.50;99.90;;;;;;5086859;28;20039;-62